sensor_id;sensor_type;location;lat;lon;timestamp;noise_LAeq;noise_LA_min;noise_LA_max;noise_LA01;noise_LA95
67300;Laerm;57658;51.436;5.980;2023-06-01T00:00:08;55.58;32.93;70.49;;
67300;Laerm;57658;51.436;5.980;2023-06-01T00:00:24;40.45;32.65;50.10;;
67300;Laerm;57658;51.436;5.980;2023-06-01T00:00:34;37.43;32.56;46.74;;
67300;Laerm;57658;51.436;5.980;2023-06-01T00:00:45;35.23;30.96;45.74;;
67300;Laerm;57658;51.436;5.980;2023-06-01T00:00:55;32.19;30.59;35.41;;
67300;Laerm;57658;51.436;5.980;2023-06-01T00:01:06;32.34;30.85;36.62;;
67300;Laerm;57658;51.436;5.980;2023-06-01T00:01:16;32.50;30.70;36.09;;
67300;Laerm;57658;51.436;5.980;2023-06-01T00:01:27;32.43;30.79;36.96;;
67300;Laerm;57658;51.436;5.980;2023-06-01T00:01:37;32.54;30.67;34.41;;
67300;Laerm;57658;51.436;5.980;2023-06-01T00:01:47;32.18;30.16;33.52;;
67300;Laerm;57658;51.436;5.980;2023-06-01T00:01:58;32.42;31.13;34.64;;
67300;Laerm;57658;51.436;5.980;2023-06-01T00:02:08;36.19;31.04;48.41;;
67300;Laerm;57658;51.436;5.980;2023-06-01T00:02:18;34.57;31.44;39.95;;
67300;Laerm;57658;51.436;5.980;2023-06-01T00:02:29;41.59;32.54;52.46;;
67300;Laerm;57658;51.436;5.980;2023-06-01T00:02:39;38.89;32.23;49.15;;
67300;Laerm;57658;51.436;5.980;2023-06-01T00:02:51;35.61;30.31;50.01;;
67300;Laerm;57658;51.436;5.980;2023-06-01T00:03:01;33.36;30.55;40.53;;
67300;Laerm;57658;51.436;5.980;2023-06-01T00:03:11;31.82;30.60;34.07;;
67300;Laerm;57658;51.436;5.980;2023-06-01T00:03:22;32.19;30.47;35.65;;
67300;Laerm;57658;51.436;5.980;2023-06-01T00:03:33;31.65;30.21;33.04;;
67300;Laerm;57658;51.436;5.980;2023-06-01T00:03:43;31.52;30.02;32.93;;
67300;Laerm;57658;51.436;5.980;2023-06-01T00:03:54;32.12;30.30;35.87;;
67300;Laerm;57658;51.436;5.980;2023-06-01T00:04:04;32.63;30.63;36.69;;
67300;Laerm;57658;51.436;5.980;2023-06-01T00:04:15;33.50;30.74;40.80;;
67300;Laerm;57658;51.436;5.980;2023-06-01T00:04:27;38.00;30.79;53.25;;
67300;Laerm;57658;51.436;5.980;2023-06-01T00:04:37;32.38;30.89;36.88;;
67300;Laerm;57658;51.436;5.980;2023-06-01T00:04:50;31.88;30.21;34.07;;
67300;Laerm;57658;51.436;5.980;2023-06-01T00:05:00;31.69;30.41;33.36;;
67300;Laerm;57658;51.436;5.980;2023-06-01T00:05:11;32.72;30.23;39.76;;
67300;Laerm;57658;51.436;5.980;2023-06-01T00:05:21;34.29;30.88;41.46;;
67300;Laerm;57658;51.436;5.980;2023-06-01T00:05:31;32.32;30.39;34.64;;
67300;Laerm;57658;51.436;5.980;2023-06-01T00:05:41;32.10;30.25;33.93;;
67300;Laerm;57658;51.436;5.980;2023-06-01T00:05:52;32.00;30.24;33.80;;
67300;Laerm;57658;51.436;5.980;2023-06-01T00:06:02;31.94;30.61;33.66;;
67300;Laerm;57658;51.436;5.980;2023-06-01T00:06:12;32.77;30.40;41.75;;
67300;Laerm;57658;51.436;5.980;2023-06-01T00:06:23;32.02;30.28;35.84;;
67300;Laerm;57658;51.436;5.980;2023-06-01T00:06:33;33.05;30.55;40.94;;
67300;Laerm;57658;51.436;5.980;2023-06-01T00:06:44;32.47;30.96;34.10;;
67300;Laerm;57658;51.436;5.980;2023-06-01T00:06:54;32.22;31.00;35.31;;
67300;Laerm;57658;51.436;5.980;2023-06-01T00:07:05;31.90;30.23;33.38;;
67300;Laerm;57658;51.436;5.980;2023-06-01T00:07:16;31.95;30.09;33.43;;
67300;Laerm;57658;51.436;5.980;2023-06-01T00:07:26;31.94;30.20;33.82;;
67300;Laerm;57658;51.436;5.980;2023-06-01T00:07:39;32.57;30.57;36.02;;
67300;Laerm;57658;51.436;5.980;2023-06-01T00:07:50;33.42;32.22;34.81;;
67300;Laerm;57658;51.436;5.980;2023-06-01T00:08:00;33.44;32.02;35.08;;
67300;Laerm;57658;51.436;5.980;2023-06-01T00:08:11;33.72;32.13;37.42;;
67300;Laerm;57658;51.436;5.980;2023-06-01T00:08:21;33.96;32.22;37.58;;
67300;Laerm;57658;51.436;5.980;2023-06-01T00:08:32;34.08;31.88;36.76;;
67300;Laerm;57658;51.436;5.980;2023-06-01T00:08:42;34.94;32.36;40.07;;
67300;Laerm;57658;51.436;5.980;2023-06-01T00:08:53;36.34;33.36;43.76;;
67300;Laerm;57658;51.436;5.980;2023-06-01T00:09:03;38.57;33.24;46.89;;
67300;Laerm;57658;51.436;5.980;2023-06-01T00:09:13;37.00;33.07;47.03;;
67300;Laerm;57658;51.436;5.980;2023-06-01T00:09:24;38.23;33.19;44.81;;
67300;Laerm;57658;51.436;5.980;2023-06-01T00:09:34;41.88;33.86;52.09;;
67300;Laerm;57658;51.436;5.980;2023-06-01T00:09:45;40.05;33.81;51.07;;
67300;Laerm;57658;51.436;5.980;2023-06-01T00:09:55;42.64;35.70;51.24;;
67300;Laerm;57658;51.436;5.980;2023-06-01T00:10:05;49.32;34.60;59.89;;
67300;Laerm;57658;51.436;5.980;2023-06-01T00:10:16;51.26;34.53;65.22;;
67300;Laerm;57658;51.436;5.980;2023-06-01T00:10:26;40.64;33.47;51.44;;
67300;Laerm;57658;51.436;5.980;2023-06-01T00:10:36;42.97;33.61;52.50;;
67300;Laerm;57658;51.436;5.980;2023-06-01T00:10:47;44.26;33.48;53.87;;
67300;Laerm;57658;51.436;5.980;2023-06-01T00:10:57;40.36;32.95;51.41;;
67300;Laerm;57658;51.436;5.980;2023-06-01T00:11:07;43.46;33.09;53.99;;
67300;Laerm;57658;51.436;5.980;2023-06-01T00:11:18;40.97;32.43;52.61;;
67300;Laerm;57658;51.436;5.980;2023-06-01T00:11:28;36.69;32.11;44.75;;
67300;Laerm;57658;51.436;5.980;2023-06-01T00:11:38;36.42;31.38;45.31;;
67300;Laerm;57658;51.436;5.980;2023-06-01T00:11:49;34.38;31.02;41.08;;
67300;Laerm;57658;51.436;5.980;2023-06-01T00:11:59;33.84;31.71;40.45;;
67300;Laerm;57658;51.436;5.980;2023-06-01T00:12:09;34.81;31.45;41.40;;
67300;Laerm;57658;51.436;5.980;2023-06-01T00:12:20;34.83;32.31;42.52;;
67300;Laerm;57658;51.436;5.980;2023-06-01T00:12:30;36.72;32.01;43.68;;
67300;Laerm;57658;51.436;5.980;2023-06-01T00:12:40;34.56;31.25;41.76;;
67300;Laerm;57658;51.436;5.980;2023-06-01T00:12:51;34.21;31.06;40.74;;
67300;Laerm;57658;51.436;5.980;2023-06-01T00:13:01;33.99;31.30;40.00;;
67300;Laerm;57658;51.436;5.980;2023-06-01T00:13:11;34.95;30.82;45.62;;
67300;Laerm;57658;51.436;5.980;2023-06-01T00:13:22;32.94;30.77;39.83;;
67300;Laerm;57658;51.436;5.980;2023-06-01T00:13:32;32.77;30.49;36.16;;
67300;Laerm;57658;51.436;5.980;2023-06-01T00:13:42;33.47;30.67;40.37;;
67300;Laerm;57658;51.436;5.980;2023-06-01T00:13:52;32.24;30.71;35.09;;
67300;Laerm;57658;51.436;5.980;2023-06-01T00:14:03;33.15;30.85;39.08;;
67300;Laerm;57658;51.436;5.980;2023-06-01T00:14:13;32.51;30.68;36.70;;
67300;Laerm;57658;51.436;5.980;2023-06-01T00:14:24;33.51;31.14;42.06;;
67300;Laerm;57658;51.436;5.980;2023-06-01T00:14:34;34.34;31.64;42.05;;
67300;Laerm;57658;51.436;5.980;2023-06-01T00:14:45;35.98;32.17;46.13;;
67300;Laerm;57658;51.436;5.980;2023-06-01T00:14:55;34.23;32.08;41.74;;
67300;Laerm;57658;51.436;5.980;2023-06-01T00:15:06;33.86;31.66;38.54;;
67300;Laerm;57658;51.436;5.980;2023-06-01T00:15:16;35.69;32.09;42.94;;
67300;Laerm;57658;51.436;5.980;2023-06-01T00:15:26;34.56;32.56;43.29;;
67300;Laerm;57658;51.436;5.980;2023-06-01T00:15:37;39.01;32.45;53.34;;
67300;Laerm;57658;51.436;5.980;2023-06-01T00:15:47;40.67;33.52;50.49;;
67300;Laerm;57658;51.436;5.980;2023-06-01T00:15:58;36.44;32.80;46.10;;
67300;Laerm;57658;51.436;5.980;2023-06-01T00:16:08;43.64;32.15;52.81;;
67300;Laerm;57658;51.436;5.980;2023-06-01T00:16:18;36.09;31.19;48.29;;
67300;Laerm;57658;51.436;5.980;2023-06-01T00:16:29;34.07;31.63;38.42;;
67300;Laerm;57658;51.436;5.980;2023-06-01T00:16:40;36.36;32.16;45.49;;
67300;Laerm;57658;51.436;5.980;2023-06-01T00:16:51;33.81;31.88;39.39;;
67300;Laerm;57658;51.436;5.980;2023-06-01T00:17:02;34.40;32.12;41.20;;
67300;Laerm;57658;51.436;5.980;2023-06-01T00:17:15;39.16;34.01;47.59;;
67300;Laerm;57658;51.436;5.980;2023-06-01T00:17:26;36.83;33.38;45.08;;
67300;Laerm;57658;51.436;5.980;2023-06-01T00:17:38;49.83;35.46;66.02;;
67300;Laerm;57658;51.436;5.980;2023-06-01T00:17:49;42.81;34.02;54.67;;
67300;Laerm;57658;51.436;5.980;2023-06-01T00:18:01;48.71;34.29;64.13;;
67300;Laerm;57658;51.436;5.980;2023-06-01T00:18:11;46.89;35.32;56.47;;
67300;Laerm;57658;51.436;5.980;2023-06-01T00:18:22;42.85;35.75;53.35;;
67300;Laerm;57658;51.436;5.980;2023-06-01T00:18:33;42.03;34.21;49.39;;
67300;Laerm;57658;51.436;5.980;2023-06-01T00:18:43;43.94;33.77;55.66;;
67300;Laerm;57658;51.436;5.980;2023-06-01T00:18:53;38.40;33.34;47.60;;
67300;Laerm;57658;51.436;5.980;2023-06-01T00:19:06;40.74;33.15;50.19;;
67300;Laerm;57658;51.436;5.980;2023-06-01T00:19:16;38.26;33.12;46.88;;
67300;Laerm;57658;51.436;5.980;2023-06-01T00:19:27;38.96;33.62;48.89;;
67300;Laerm;57658;51.436;5.980;2023-06-01T00:19:39;35.95;32.25;43.34;;
67300;Laerm;57658;51.436;5.980;2023-06-01T00:19:49;41.27;31.93;54.43;;
67300;Laerm;57658;51.436;5.980;2023-06-01T00:19:59;36.69;32.90;46.96;;
67300;Laerm;57658;51.436;5.980;2023-06-01T00:20:17;39.59;32.85;50.73;;
67300;Laerm;57658;51.436;5.980;2023-06-01T00:20:28;36.52;32.35;45.22;;
67300;Laerm;57658;51.436;5.980;2023-06-01T00:20:39;34.96;32.48;42.30;;
67300;Laerm;57658;51.436;5.980;2023-06-01T00:20:49;38.17;33.06;46.88;;
67300;Laerm;57658;51.436;5.980;2023-06-01T00:20:59;43.53;33.64;53.50;;
67300;Laerm;57658;51.436;5.980;2023-06-01T00:21:10;39.95;33.58;52.72;;
67300;Laerm;57658;51.436;5.980;2023-06-01T00:21:21;43.46;35.17;53.18;;
67300;Laerm;57658;51.436;5.980;2023-06-01T00:21:31;44.26;34.39;54.29;;
67300;Laerm;57658;51.436;5.980;2023-06-01T00:21:43;40.84;34.49;58.31;;
67300;Laerm;57658;51.436;5.980;2023-06-01T00:21:53;39.54;35.20;50.72;;
67300;Laerm;57658;51.436;5.980;2023-06-01T00:22:04;47.45;35.51;59.11;;
67300;Laerm;57658;51.436;5.980;2023-06-01T00:22:14;48.30;37.60;59.31;;
67300;Laerm;57658;51.436;5.980;2023-06-01T00:22:25;40.26;34.47;51.68;;
67300;Laerm;57658;51.436;5.980;2023-06-01T00:22:38;47.34;34.00;58.35;;
67300;Laerm;57658;51.436;5.980;2023-06-01T00:22:49;50.92;36.88;62.25;;
67300;Laerm;57658;51.436;5.980;2023-06-01T00:22:59;49.31;34.59;58.69;;
67300;Laerm;57658;51.436;5.980;2023-06-01T00:23:10;44.22;34.16;56.16;;
67300;Laerm;57658;51.436;5.980;2023-06-01T00:23:20;42.80;35.23;53.71;;
67300;Laerm;57658;51.436;5.980;2023-06-01T00:23:31;41.54;35.20;51.84;;
67300;Laerm;57658;51.436;5.980;2023-06-01T00:23:42;42.19;35.66;53.53;;
67300;Laerm;57658;51.436;5.980;2023-06-01T00:23:52;44.81;34.70;52.80;;
67300;Laerm;57658;51.436;5.980;2023-06-01T00:24:03;47.84;34.16;57.47;;
67300;Laerm;57658;51.436;5.980;2023-06-01T00:24:13;47.77;36.59;58.29;;
67300;Laerm;57658;51.436;5.980;2023-06-01T00:24:24;45.09;33.92;56.41;;
67300;Laerm;57658;51.436;5.980;2023-06-01T00:24:35;40.50;31.86;52.02;;
67300;Laerm;57658;51.436;5.980;2023-06-01T00:24:46;34.53;32.12;44.28;;
67300;Laerm;57658;51.436;5.980;2023-06-01T00:24:56;40.07;33.23;55.61;;
67300;Laerm;57658;51.436;5.980;2023-06-01T00:25:07;34.10;32.54;39.76;;
67300;Laerm;57658;51.436;5.980;2023-06-01T00:25:18;33.50;32.30;35.78;;
67300;Laerm;57658;51.436;5.980;2023-06-01T00:25:28;34.36;32.29;39.44;;
67300;Laerm;57658;51.436;5.980;2023-06-01T00:25:38;34.50;31.80;43.00;;
67300;Laerm;57658;51.436;5.980;2023-06-01T00:25:48;37.14;32.80;47.59;;
67300;Laerm;57658;51.436;5.980;2023-06-01T00:25:59;48.14;34.06;63.49;;
67300;Laerm;57658;51.436;5.980;2023-06-01T00:26:10;48.23;36.44;61.18;;
67300;Laerm;57658;51.436;5.980;2023-06-01T00:26:20;37.06;35.38;39.72;;
67300;Laerm;57658;51.436;5.980;2023-06-01T00:26:31;45.39;36.21;58.64;;
67300;Laerm;57658;51.436;5.980;2023-06-01T00:26:42;46.88;35.75;59.22;;
67300;Laerm;57658;51.436;5.980;2023-06-01T00:26:52;41.69;34.89;53.20;;
67300;Laerm;57658;51.436;5.980;2023-06-01T00:27:02;57.03;40.98;63.79;;
67300;Laerm;57658;51.436;5.980;2023-06-01T00:27:13;53.56;36.19;66.57;;
67300;Laerm;57658;51.436;5.980;2023-06-01T00:27:23;39.50;34.77;49.64;;
67300;Laerm;57658;51.436;5.980;2023-06-01T00:27:34;41.99;36.59;46.76;;
67300;Laerm;57658;51.436;5.980;2023-06-01T00:27:44;37.41;34.75;43.05;;
67300;Laerm;57658;51.436;5.980;2023-06-01T00:27:54;38.01;33.14;46.44;;
67300;Laerm;57658;51.436;5.980;2023-06-01T00:28:06;37.79;32.84;47.19;;
67300;Laerm;57658;51.436;5.980;2023-06-01T00:28:16;35.98;33.49;41.56;;
67300;Laerm;57658;51.436;5.980;2023-06-01T00:28:26;36.81;34.50;41.23;;
67300;Laerm;57658;51.436;5.980;2023-06-01T00:28:37;38.49;35.19;49.76;;
67300;Laerm;57658;51.436;5.980;2023-06-01T00:28:47;36.29;34.35;40.98;;
67300;Laerm;57658;51.436;5.980;2023-06-01T00:28:58;36.20;33.95;42.65;;
67300;Laerm;57658;51.436;5.980;2023-06-01T00:29:08;40.10;35.16;49.79;;
67300;Laerm;57658;51.436;5.980;2023-06-01T00:29:19;43.60;38.14;53.70;;
67300;Laerm;57658;51.436;5.980;2023-06-01T00:29:29;54.40;37.84;66.96;;
67300;Laerm;57658;51.436;5.980;2023-06-01T00:29:39;52.84;38.71;63.21;;
67300;Laerm;57658;51.436;5.980;2023-06-01T00:29:50;48.72;35.30;58.95;;
67300;Laerm;57658;51.436;5.980;2023-06-01T00:30:00;40.28;33.84;48.20;;
67300;Laerm;57658;51.436;5.980;2023-06-01T00:30:11;41.18;33.16;50.59;;
67300;Laerm;57658;51.436;5.980;2023-06-01T00:30:21;47.30;34.00;62.36;;
67300;Laerm;57658;51.436;5.980;2023-06-01T00:30:32;52.30;34.05;63.90;;
67300;Laerm;57658;51.436;5.980;2023-06-01T00:30:42;41.26;33.20;50.99;;
67300;Laerm;57658;51.436;5.980;2023-06-01T00:30:52;44.75;34.51;58.16;;
67300;Laerm;57658;51.436;5.980;2023-06-01T00:31:03;52.28;32.02;68.78;;
67300;Laerm;57658;51.436;5.980;2023-06-01T00:31:13;48.33;33.67;64.43;;
67300;Laerm;57658;51.436;5.980;2023-06-01T00:31:23;35.81;32.08;45.32;;
67300;Laerm;57658;51.436;5.980;2023-06-01T00:31:35;34.46;32.53;38.55;;
67300;Laerm;57658;51.436;5.980;2023-06-01T00:31:45;36.78;32.94;45.58;;
67300;Laerm;57658;51.436;5.980;2023-06-01T00:31:55;36.65;33.06;48.92;;
67300;Laerm;57658;51.436;5.980;2023-06-01T00:32:06;43.09;35.12;50.54;;
67300;Laerm;57658;51.436;5.980;2023-06-01T00:32:16;45.10;35.52;55.91;;
67300;Laerm;57658;51.436;5.980;2023-06-01T00:32:26;41.31;32.37;54.67;;
67300;Laerm;57658;51.436;5.980;2023-06-01T00:32:37;39.49;32.53;48.28;;
67300;Laerm;57658;51.436;5.980;2023-06-01T00:32:47;37.68;32.77;44.68;;
67300;Laerm;57658;51.436;5.980;2023-06-01T00:32:57;40.78;33.04;52.02;;
67300;Laerm;57658;51.436;5.980;2023-06-01T00:33:07;37.62;33.36;46.77;;
67300;Laerm;57658;51.436;5.980;2023-06-01T00:33:18;39.23;33.31;49.98;;
67300;Laerm;57658;51.436;5.980;2023-06-01T00:33:28;40.95;32.60;50.48;;
67300;Laerm;57658;51.436;5.980;2023-06-01T00:33:39;37.98;32.76;48.46;;
67300;Laerm;57658;51.436;5.980;2023-06-01T00:33:49;40.82;33.18;49.58;;
67300;Laerm;57658;51.436;5.980;2023-06-01T00:34:00;39.08;32.99;48.85;;
67300;Laerm;57658;51.436;5.980;2023-06-01T00:34:11;38.69;33.58;45.86;;
67300;Laerm;57658;51.436;5.980;2023-06-01T00:34:21;41.91;32.92;53.99;;
67300;Laerm;57658;51.436;5.980;2023-06-01T00:34:32;40.59;32.61;50.58;;
67300;Laerm;57658;51.436;5.980;2023-06-01T00:34:42;37.08;31.73;52.77;;
67300;Laerm;57658;51.436;5.980;2023-06-01T00:34:52;40.15;31.87;50.60;;
67300;Laerm;57658;51.436;5.980;2023-06-01T00:35:03;35.40;31.75;42.31;;
67300;Laerm;57658;51.436;5.980;2023-06-01T00:35:13;34.37;31.72;42.09;;
67300;Laerm;57658;51.436;5.980;2023-06-01T00:35:23;35.12;31.76;43.23;;
67300;Laerm;57658;51.436;5.980;2023-06-01T00:35:33;38.50;32.97;46.23;;
67300;Laerm;57658;51.436;5.980;2023-06-01T00:35:44;34.33;31.91;37.67;;
67300;Laerm;57658;51.436;5.980;2023-06-01T00:35:54;33.43;31.30;36.44;;
67300;Laerm;57658;51.436;5.980;2023-06-01T00:36:05;38.32;31.21;50.06;;
67300;Laerm;57658;51.436;5.980;2023-06-01T00:36:15;33.39;30.74;38.86;;
67300;Laerm;57658;51.436;5.980;2023-06-01T00:36:26;33.85;30.94;40.52;;
67300;Laerm;57658;51.436;5.980;2023-06-01T00:36:36;32.26;30.19;34.14;;
67300;Laerm;57658;51.436;5.980;2023-06-01T00:36:46;32.46;30.48;36.72;;
67300;Laerm;57658;51.436;5.980;2023-06-01T00:36:56;32.45;30.78;34.20;;
67300;Laerm;57658;51.436;5.980;2023-06-01T00:37:07;35.88;30.70;45.62;;
67300;Laerm;57658;51.436;5.980;2023-06-01T00:37:17;38.40;30.54;50.99;;
67300;Laerm;57658;51.436;5.980;2023-06-01T00:37:27;35.52;31.55;44.98;;
67300;Laerm;57658;51.436;5.980;2023-06-01T00:37:38;34.49;31.99;40.11;;
67300;Laerm;57658;51.436;5.980;2023-06-01T00:37:49;40.87;32.02;49.98;;
67300;Laerm;57658;51.436;5.980;2023-06-01T00:37:59;37.89;33.15;47.03;;
67300;Laerm;57658;51.436;5.980;2023-06-01T00:38:09;37.88;32.24;55.42;;
67300;Laerm;57658;51.436;5.980;2023-06-01T00:38:20;43.58;32.85;54.87;;
67300;Laerm;57658;51.436;5.980;2023-06-01T00:38:30;39.81;32.54;47.24;;
67300;Laerm;57658;51.436;5.980;2023-06-01T00:38:40;36.39;31.12;47.42;;
67300;Laerm;57658;51.436;5.980;2023-06-01T00:38:51;35.27;31.30;45.86;;
67300;Laerm;57658;51.436;5.980;2023-06-01T00:39:01;33.39;30.69;40.66;;
67300;Laerm;57658;51.436;5.980;2023-06-01T00:39:14;35.05;30.58;44.89;;
67300;Laerm;57658;51.436;5.980;2023-06-01T00:39:24;33.54;31.19;40.53;;
67300;Laerm;57658;51.436;5.980;2023-06-01T00:39:35;33.70;30.60;41.51;;
67300;Laerm;57658;51.436;5.980;2023-06-01T00:39:45;34.35;31.38;41.56;;
67300;Laerm;57658;51.436;5.980;2023-06-01T00:39:55;34.67;31.29;45.35;;
67300;Laerm;57658;51.436;5.980;2023-06-01T00:40:06;32.24;30.62;33.69;;
67300;Laerm;57658;51.436;5.980;2023-06-01T00:40:16;32.57;30.62;42.11;;
67300;Laerm;57658;51.436;5.980;2023-06-01T00:40:26;32.22;30.83;33.76;;
67300;Laerm;57658;51.436;5.980;2023-06-01T00:40:37;32.43;31.14;33.60;;
67300;Laerm;57658;51.436;5.980;2023-06-01T00:40:47;32.60;31.02;33.83;;
67300;Laerm;57658;51.436;5.980;2023-06-01T00:41:00;32.76;31.40;34.11;;
67300;Laerm;57658;51.436;5.980;2023-06-01T00:41:10;33.06;31.50;37.89;;
67300;Laerm;57658;51.436;5.980;2023-06-01T00:41:20;33.60;31.37;37.22;;
67300;Laerm;57658;51.436;5.980;2023-06-01T00:41:31;33.06;31.01;36.00;;
67300;Laerm;57658;51.436;5.980;2023-06-01T00:41:42;34.42;32.01;38.71;;
67300;Laerm;57658;51.436;5.980;2023-06-01T00:41:52;40.42;33.42;52.63;;
67300;Laerm;57658;51.436;5.980;2023-06-01T00:42:03;43.51;34.34;52.87;;
67300;Laerm;57658;51.436;5.980;2023-06-01T00:42:13;40.83;33.20;53.62;;
67300;Laerm;57658;51.436;5.980;2023-06-01T00:42:23;48.35;35.01;60.57;;
67300;Laerm;57658;51.436;5.980;2023-06-01T00:42:34;40.52;32.91;55.23;;
67300;Laerm;57658;51.436;5.980;2023-06-01T00:42:44;40.39;33.05;50.15;;
67300;Laerm;57658;51.436;5.980;2023-06-01T00:42:54;36.36;32.61;47.87;;
67300;Laerm;57658;51.436;5.980;2023-06-01T00:43:05;38.12;32.79;49.68;;
67300;Laerm;57658;51.436;5.980;2023-06-01T00:43:15;37.29;33.36;48.26;;
67300;Laerm;57658;51.436;5.980;2023-06-01T00:43:26;38.84;34.23;47.81;;
67300;Laerm;57658;51.436;5.980;2023-06-01T00:43:36;38.08;33.19;49.88;;
67300;Laerm;57658;51.436;5.980;2023-06-01T00:43:46;35.01;32.60;48.10;;
67300;Laerm;57658;51.436;5.980;2023-06-01T00:43:57;41.51;33.66;51.99;;
67300;Laerm;57658;51.436;5.980;2023-06-01T00:44:07;44.56;34.19;56.19;;
67300;Laerm;57658;51.436;5.980;2023-06-01T00:44:17;45.30;36.19;54.83;;
67300;Laerm;57658;51.436;5.980;2023-06-01T00:44:28;45.85;36.45;57.04;;
67300;Laerm;57658;51.436;5.980;2023-06-01T00:44:38;46.11;35.51;56.05;;
67300;Laerm;57658;51.436;5.980;2023-06-01T00:44:48;39.33;33.15;52.80;;
67300;Laerm;57658;51.436;5.980;2023-06-01T00:44:59;46.45;33.33;55.80;;
67300;Laerm;57658;51.436;5.980;2023-06-01T00:45:09;40.63;33.56;47.93;;
67300;Laerm;57658;51.436;5.980;2023-06-01T00:45:19;42.62;34.17;55.98;;
67300;Laerm;57658;51.436;5.980;2023-06-01T00:45:30;36.85;33.06;47.03;;
67300;Laerm;57658;51.436;5.980;2023-06-01T00:45:40;41.30;31.97;54.15;;
67300;Laerm;57658;51.436;5.980;2023-06-01T00:45:50;35.17;32.22;42.50;;
67300;Laerm;57658;51.436;5.980;2023-06-01T00:46:01;35.82;32.67;41.21;;
67300;Laerm;57658;51.436;5.980;2023-06-01T00:46:11;37.54;32.44;45.59;;
67300;Laerm;57658;51.436;5.980;2023-06-01T00:46:24;39.07;33.26;47.99;;
67300;Laerm;57658;51.436;5.980;2023-06-01T00:46:35;41.40;33.16;56.63;;
67300;Laerm;57658;51.436;5.980;2023-06-01T00:46:47;43.37;32.57;53.53;;
67300;Laerm;57658;51.436;5.980;2023-06-01T00:46:57;46.90;34.34;57.26;;
67300;Laerm;57658;51.436;5.980;2023-06-01T00:47:09;34.96;32.30;42.14;;
67300;Laerm;57658;51.436;5.980;2023-06-01T00:47:19;34.97;32.07;41.37;;
67300;Laerm;57658;51.436;5.980;2023-06-01T00:47:30;35.78;31.90;44.07;;
67300;Laerm;57658;51.436;5.980;2023-06-01T00:47:46;35.63;32.74;45.84;;
67300;Laerm;57658;51.436;5.980;2023-06-01T00:47:56;34.86;33.25;38.38;;
67300;Laerm;57658;51.436;5.980;2023-06-01T00:48:07;36.10;32.93;45.02;;
67300;Laerm;57658;51.436;5.980;2023-06-01T00:48:18;37.54;33.27;44.84;;
67300;Laerm;57658;51.436;5.980;2023-06-01T00:48:28;37.47;33.23;47.88;;
67300;Laerm;57658;51.436;5.980;2023-06-01T00:48:39;36.81;33.11;49.11;;
67300;Laerm;57658;51.436;5.980;2023-06-01T00:48:49;33.87;31.89;40.23;;
67300;Laerm;57658;51.436;5.980;2023-06-01T00:49:00;33.71;31.46;37.82;;
67300;Laerm;57658;51.436;5.980;2023-06-01T00:49:11;35.81;32.76;46.08;;
67300;Laerm;57658;51.436;5.980;2023-06-01T00:49:21;36.89;33.29;45.86;;
67300;Laerm;57658;51.436;5.980;2023-06-01T00:49:32;42.85;34.20;52.94;;
67300;Laerm;57658;51.436;5.980;2023-06-01T00:49:42;43.53;33.71;54.15;;
67300;Laerm;57658;51.436;5.980;2023-06-01T00:49:52;37.11;33.64;47.62;;
67300;Laerm;57658;51.436;5.980;2023-06-01T00:50:03;39.09;33.59;48.28;;
67300;Laerm;57658;51.436;5.980;2023-06-01T00:50:13;36.77;33.05;46.05;;
67300;Laerm;57658;51.436;5.980;2023-06-01T00:50:23;42.36;34.34;50.63;;
67300;Laerm;57658;51.436;5.980;2023-06-01T00:50:34;38.46;33.69;48.94;;
67300;Laerm;57658;51.436;5.980;2023-06-01T00:50:44;36.15;32.47;43.82;;
67300;Laerm;57658;51.436;5.980;2023-06-01T00:50:55;40.51;33.04;51.49;;
67300;Laerm;57658;51.436;5.980;2023-06-01T00:51:07;38.75;32.36;52.38;;
67300;Laerm;57658;51.436;5.980;2023-06-01T00:51:17;35.53;32.44;41.73;;
67300;Laerm;57658;51.436;5.980;2023-06-01T00:51:28;39.13;32.74;49.13;;
67300;Laerm;57658;51.436;5.980;2023-06-01T00:51:39;40.84;33.77;49.68;;
67300;Laerm;57658;51.436;5.980;2023-06-01T00:51:51;37.63;33.90;45.59;;
67300;Laerm;57658;51.436;5.980;2023-06-01T00:52:01;40.62;34.22;52.28;;
67300;Laerm;57658;51.436;5.980;2023-06-01T00:52:12;43.59;34.42;54.87;;
67300;Laerm;57658;51.436;5.980;2023-06-01T00:52:23;42.96;33.97;53.92;;
67300;Laerm;57658;51.436;5.980;2023-06-01T00:52:33;42.01;33.73;55.05;;
67300;Laerm;57658;51.436;5.980;2023-06-01T00:52:43;37.42;32.81;46.61;;
67300;Laerm;57658;51.436;5.980;2023-06-01T00:52:55;38.62;33.49;49.61;;
67300;Laerm;57658;51.436;5.980;2023-06-01T00:53:06;49.00;34.86;60.92;;
67300;Laerm;57658;51.436;5.980;2023-06-01T00:53:18;44.49;35.93;58.25;;
67300;Laerm;57658;51.436;5.980;2023-06-01T00:53:28;41.62;34.25;50.47;;
67300;Laerm;57658;51.436;5.980;2023-06-01T00:53:38;35.77;33.50;38.35;;
67300;Laerm;57658;51.436;5.980;2023-06-01T00:53:49;40.58;35.89;50.69;;
67300;Laerm;57658;51.436;5.980;2023-06-01T00:53:59;44.19;39.30;52.31;;
67300;Laerm;57658;51.436;5.980;2023-06-01T00:54:10;53.31;43.68;59.15;;
67300;Laerm;57658;51.436;5.980;2023-06-01T00:54:21;62.64;44.68;71.75;;
67300;Laerm;57658;51.436;5.980;2023-06-01T00:54:31;46.04;34.28;57.21;;
67300;Laerm;57658;51.436;5.980;2023-06-01T00:54:42;46.12;37.12;54.56;;
67300;Laerm;57658;51.436;5.980;2023-06-01T00:54:52;44.36;35.57;54.47;;
67300;Laerm;57658;51.436;5.980;2023-06-01T00:55:03;39.92;33.29;51.88;;
67300;Laerm;57658;51.436;5.980;2023-06-01T00:55:14;44.33;34.49;53.41;;
67300;Laerm;57658;51.436;5.980;2023-06-01T00:55:24;45.34;33.47;59.50;;
67300;Laerm;57658;51.436;5.980;2023-06-01T00:55:34;36.38;32.87;48.87;;
67300;Laerm;57658;51.436;5.980;2023-06-01T00:55:45;39.63;33.47;50.61;;
67300;Laerm;57658;51.436;5.980;2023-06-01T00:55:56;40.81;33.28;51.89;;
67300;Laerm;57658;51.436;5.980;2023-06-01T00:56:06;41.04;33.19;51.37;;
67300;Laerm;57658;51.436;5.980;2023-06-01T00:56:17;36.61;33.61;45.35;;
67300;Laerm;57658;51.436;5.980;2023-06-01T00:56:27;40.41;32.62;55.10;;
67300;Laerm;57658;51.436;5.980;2023-06-01T00:56:38;36.94;32.37;49.29;;
67300;Laerm;57658;51.436;5.980;2023-06-01T00:56:49;36.41;32.29;46.16;;
67300;Laerm;57658;51.436;5.980;2023-06-01T00:56:59;34.56;32.11;39.20;;
67300;Laerm;57658;51.436;5.980;2023-06-01T00:57:10;41.99;32.15;54.39;;
67300;Laerm;57658;51.436;5.980;2023-06-01T00:57:21;35.20;30.96;44.16;;
67300;Laerm;57658;51.436;5.980;2023-06-01T00:57:36;39.14;32.65;49.28;;
67300;Laerm;57658;51.436;5.980;2023-06-01T00:57:48;44.07;32.96;56.48;;
67300;Laerm;57658;51.436;5.980;2023-06-01T00:57:59;43.94;33.14;54.90;;
67300;Laerm;57658;51.436;5.980;2023-06-01T00:58:13;32.94;31.35;35.25;;
67300;Laerm;57658;51.436;5.980;2023-06-01T00:58:24;34.46;31.57;42.09;;
67300;Laerm;57658;51.436;5.980;2023-06-01T00:58:34;35.58;31.85;43.45;;
67300;Laerm;57658;51.436;5.980;2023-06-01T00:58:44;41.54;33.34;53.68;;
67300;Laerm;57658;51.436;5.980;2023-06-01T00:58:55;38.31;31.74;48.54;;
67300;Laerm;57658;51.436;5.980;2023-06-01T00:59:05;39.26;32.13;50.01;;
67300;Laerm;57658;51.436;5.980;2023-06-01T00:59:16;35.92;32.37;42.16;;
67300;Laerm;57658;51.436;5.980;2023-06-01T00:59:26;38.84;33.16;51.81;;
67300;Laerm;57658;51.436;5.980;2023-06-01T00:59:36;42.59;33.06;53.75;;